»·PEaware :: N901DJ KODO-KSJT

N901DJ :: KODO-KSJT

FLIGHT INFORMATION

Flight Status: Arrived
Operator: Privately registered:
United States
More flights under this callsign
Pilot: Drew L. (13237)
Aircraft: SOCATA TBM-900
(TBM9)
More flights by this aircraft type
Origin: KODO Odessa-Schlemeyer
United States
Destination: KSJT San Angelo Regl/Mathis
United States
More flights between these airports :: More routes between these airports
Route: SJT
File this flight plan on PilotEdge
Remarks: ROGER
Altitude:
(Current/Filed)
17,000ft
Speed:
(Current/Filed)
0kts
Departed: 20-Oct-18 03:11 PM
Arrived: 20-Oct-18 03:54 PM
Distance/Time
Traveled:
102nm/0:42
Distance/Time
To Go:
Arrived

Flight Plot

Page will automatically refresh every two minutes.

Flight plan parsing failed; only flown route is shown


Map Options




Map Legend


Flown Route
Filed Route
Departure Airport
Arrival Airport
Navaid (VOR, NDB)
Fix

Horizontal Profiles

Position Reports

Time Latitude Longitude Heading Altitude Ground
Speed
20-Oct-18 15:07 31.916675 -102.378417 299 2975ft 0kts
20-Oct-18 15:08 31.916675 -102.378417 299 2975ft 0kts
20-Oct-18 15:09 31.916675 -102.378418 299 2975ft 0kts
20-Oct-18 15:10 31.916675 -102.378418 299 2975ft 0kts
20-Oct-18 15:11 31.916675 -102.378418 299 2975ft 0kts
20-Oct-18 15:12 31.916675 -102.378418 299 2975ft 0kts
20-Oct-18 15:13 31.918364 -102.381838 308 2984ft 92kts
20-Oct-18 15:14 31.903673 -102.389635 70 4050ft 140kts
20-Oct-18 15:15 31.918190 -102.409911 205 4033ft 154kts
20-Oct-18 15:16 31.921443 -102.391885 329 3194ft 164kts
20-Oct-18 15:17 31.906015 -102.407723 98 3895ft 155kts
20-Oct-18 15:18 31.906879 -102.358803 86 4940ft 136kts
20-Oct-18 15:19 31.899280 -102.317553 105 5999ft 138kts
20-Oct-18 15:20 31.886647 -102.274218 104 8707ft 140kts
20-Oct-18 15:21 31.874102 -102.230850 104 11129ft 145kts
20-Oct-18 15:22 31.860899 -102.185379 103 13316ft 152kts
20-Oct-18 15:23 31.846963 -102.137344 102 15279ft 160kts
20-Oct-18 15:24 31.832241 -102.086591 101 17033ft 170kts
20-Oct-18 15:25 31.813358 -102.021380 103 17413ft 257kts
20-Oct-18 15:26 31.788477 -101.936277 104 17386ft 286kts
20-Oct-18 15:27 31.762226 -101.846607 104 17382ft 292kts
20-Oct-18 15:28 31.735773 -101.756467 104 17383ft 293kts
20-Oct-18 15:29 31.709117 -101.665893 104 17383ft 293kts
20-Oct-18 15:30 31.682510 -101.575756 104 17383ft 293kts
20-Oct-18 15:31 31.655739 -101.485336 104 17383ft 294kts
20-Oct-18 15:32 31.628852 -101.394784 104 17383ft 294kts
20-Oct-18 15:33 31.602347 -101.305824 105 16823ft 276kts
20-Oct-18 15:34 31.578204 -101.224922 105 15394ft 255kts
20-Oct-18 15:35 31.554742 -101.146492 106 13608ft 254kts
20-Oct-18 15:36 31.531444 -101.068861 107 11812ft 251kts
20-Oct-18 15:37 31.509440 -100.995853 106 9987ft 228kts
20-Oct-18 15:38 31.478907 -100.933960 135 8431ft 224kts
20-Oct-18 15:39 31.432985 -100.885726 135 7629ft 217kts
20-Oct-18 15:40 31.388601 -100.839228 135 6822ft 213kts
20-Oct-18 15:41 31.344762 -100.793280 135 6026ft 211kts
20-Oct-18 15:42 31.301200 -100.747566 135 5316ft 202kts
20-Oct-18 15:43 31.272237 -100.698670 110 5005ft 191kts
20-Oct-18 15:44 31.258682 -100.639105 81 4032ft 185kts
20-Oct-18 15:45 31.263791 -100.584009 80 3817ft 164kts
20-Oct-18 15:46 31.268876 -100.531847 73 3758ft 155kts
20-Oct-18 15:47 31.303420 -100.505992 355 2880ft 168kts
20-Oct-18 15:48 31.343298 -100.501495 9 2031ft 143kts
20-Oct-18 15:49 31.386902 -100.499083 331 3019ft 176kts
20-Oct-18 15:50 31.378705 -100.548685 184 3265ft 207kts
20-Oct-18 15:51 31.325381 -100.541020 170 2957ft 192kts
20-Oct-18 15:52 31.282528 -100.518445 67 3446ft 174kts
20-Oct-18 15:53 31.321713 -100.504778 10 2592ft 106kts
20-Oct-18 15:54 31.349667 -100.500391 9 1912ft 90kts
20-Oct-18 15:55 31.360410 -100.494535 96 1907ft 42kts
20-Oct-18 15:56 31.361229 -100.487143 227 1907ft 9kts
20-Oct-18 15:57 31.361107 -100.487301 227 1907ft 0kts
20-Oct-18 15:58 31.359608 -100.489050 222 1907ft 79kts
20-Oct-18 15:59 31.325257 -100.521613 210 3217ft 188kts
20-Oct-18 16:00 31.332776 -100.542237 79 3024ft 125kts
20-Oct-18 16:01 31.339783 -100.510999 47 2291ft 80kts
20-Oct-18 16:02 31.355298 -100.493756 43 1907ft 54kts
20-Oct-18 16:03 31.360428 -100.494802 277 1907ft 46kts
20-Oct-18 16:04 31.358334 -100.501558 107 1907ft 0kts
20-Oct-18 16:05 31.358334 -100.501558 107 1907ft 0kts
20-Oct-18 16:06 31.358334 -100.501558 107 1907ft 0kts
20-Oct-18 16:07 31.358334 -100.501558 107 1907ft 0kts
20-Oct-18 16:08 31.358334 -100.501558 107 1907ft 0kts
20-Oct-18 16:09 31.358334 -100.501558 107 1907ft 0kts
20-Oct-18 16:10 31.358334 -100.501558 107 1907ft 0kts

Navigation Log

Ident Type
Flight plan parsing failed, navigation log unavailable